Time;durP1;ratioP1;P1;durP2;ratioP2;P2;SDS_P1;SDS_P2;PMS_P1;PMS_P2;Temp;Humidity;BMP_temperature;BMP_pressure;BME280_temperature;BME280_humidity;BME280_pressure;Samples;Min_cycle;Max_cycle;Signal;HPM_P1;HPM_P2
2023/05/03 00:00:54;;;;;;;8.25;5.20;;;9.10;99.90;;;8.52;100.00;98037.19;5046230;28;20341;-41
2023/05/03 00:03:22;;;;;;;9.32;4.50;;;9.10;99.90;;;8.44;100.00;98028.59;5050973;28;20411;-39
2023/05/03 00:05:48;;;;;;;6.05;4.43;;;9.10;99.90;;;8.45;100.00;98046.94;5046954;28;20056;-39
2023/05/03 00:08:15;;;;;;;8.30;4.60;;;9.00;99.90;;;8.38;100.00;98040.00;5051715;28;20037;-39
2023/05/03 00:10:41;;;;;;;7.03;4.97;;;9.00;99.90;;;8.30;100.00;98040.16;5050623;28;20028;-40
2023/05/03 00:13:07;;;;;;;5.65;4.43;;;8.90;99.90;;;8.25;100.00;98044.63;5046892;28;20047;-39
2023/05/03 00:15:32;;;;;;;6.80;4.80;;;8.90;99.90;;;8.07;100.00;98016.06;5052446;28;20488;-39
2023/05/03 00:17:58;;;;;;;5.97;4.03;;;8.80;99.90;;;8.17;100.00;98036.88;5041594;28;20314;-39
2023/05/03 00:20:24;;;;;;;7.80;4.60;;;8.70;99.90;;;8.11;100.00;98042.25;5049344;28;20052;-39
2023/05/03 00:22:50;;;;;;;5.90;4.20;;;8.70;99.90;;;8.09;100.00;98038.75;5048751;28;20028;-39
2023/05/03 00:25:16;;;;;;;6.85;4.72;;;8.70;99.90;;;7.96;100.00;98032.00;5050090;28;20396;-39
2023/05/03 00:27:42;;;;;;;6.85;4.32;;;8.60;99.90;;;7.99;100.00;98039.84;5040635;28;20033;-40
2023/05/03 00:30:09;;;;;;;6.63;4.43;;;8.60;99.90;;;7.94;100.00;98044.28;5049711;28;20218;-39
2023/05/03 00:32:35;;;;;;;7.10;4.40;;;8.50;99.90;;;7.83;100.00;98031.31;5047025;28;20044;-40
2023/05/03 00:35:01;;;;;;;6.80;4.53;;;8.50;99.90;;;7.71;100.00;98021.88;5046400;28;20033;-39
2023/05/03 00:37:28;;;;;;;8.48;4.78;;;8.40;99.90;;;7.72;100.00;98031.50;5051236;28;20485;-39
2023/05/03 00:39:54;;;;;;;9.13;4.88;;;8.30;99.90;;;7.54;100.00;98019.50;5042552;28;20040;-39
2023/05/03 00:42:19;;;;;;;6.75;4.63;;;8.30;99.90;;;7.66;100.00;98034.19;5044684;28;20071;-38
2023/05/03 00:44:45;;;;;;;7.53;4.78;;;8.30;99.90;;;7.56;100.00;98022.13;5050872;28;20703;-39
2023/05/03 00:47:11;;;;;;;7.68;4.90;;;8.20;99.90;;;7.54;100.00;98026.53;5044177;28;20021;-40
2023/05/03 00:49:37;;;;;;;7.10;4.45;;;8.20;99.90;;;7.49;100.00;98026.59;5045648;28;20033;-39
2023/05/03 00:52:04;;;;;;;5.55;4.20;;;8.10;99.90;;;7.48;100.00;98018.72;5045565;28;20025;-38
2023/05/03 00:54:31;;;;;;;5.50;4.10;;;8.10;99.90;;;7.44;100.00;98024.00;5047926;28;20124;-39
2023/05/03 00:56:58;;;;;;;6.72;3.90;;;8.00;99.90;;;7.40;100.00;98014.47;5043298;28;20066;-39
2023/05/03 00:59:25;;;;;;;7.35;4.65;;;8.00;99.90;;;7.38;100.00;98011.00;5045404;28;20036;-39
2023/05/03 01:01:51;;;;;;;6.60;4.63;;;7.90;99.90;;;7.36;100.00;98025.03;5045185;28;20032;-39
2023/05/03 01:04:20;;;;;;;6.03;4.10;;;7.90;99.90;;;7.31;100.00;98022.47;5042785;28;20032;-39
2023/05/03 01:07:27;;;;;;;4.72;4.15;;;7.90;99.90;;;7.28;100.00;98021.63;5042323;28;20773;-39
2023/05/03 01:10:08;;;;;;;6.25;3.88;;;7.80;99.90;;;7.26;100.00;98016.41;5004769;28;20048;-40
2023/05/03 01:12:57;;;;;;;6.47;4.20;;;7.80;99.90;;;7.21;100.00;98020.84;5039536;28;20037;-39
2023/05/03 01:15:48;;;;;;;7.28;4.72;;;7.70;99.90;;;7.19;100.00;98009.50;5042571;28;20038;-39
2023/05/03 01:18:31;;;;;;;6.82;4.68;;;7.70;99.90;;;7.12;100.00;98011.34;5036641;28;20077;-39
2023/05/03 01:21:00;;;;;;;6.72;4.60;;;7.60;99.90;;;7.07;100.00;98019.28;5044310;28;20063;-39
2023/05/03 01:23:39;;;;;;;6.15;4.18;;;7.60;99.90;;;7.05;100.00;98007.94;5049500;28;20025;-39
2023/05/03 01:26:21;;;;;;;7.45;4.40;;;7.60;99.90;;;7.02;100.00;98005.38;5041983;28;20029;-39
2023/05/03 01:28:47;;;;;;;7.13;4.53;;;7.60;99.90;;;6.95;100.00;98001.09;5037754;28;20116;-39
2023/05/03 01:31:58;;;;;;;8.90;4.38;;;7.50;99.90;;;6.95;100.00;97995.84;5039939;28;20044;-39
2023/05/03 01:34:50;;;;;;;7.65;4.60;;;7.50;99.90;;;6.92;100.00;97998.50;5020002;28;20492;-40
2023/05/03 01:37:17;;;;;;;6.97;4.80;;;7.50;99.90;;;6.89;100.00;97995.91;5047330;28;20394;-39
2023/05/03 01:39:48;;;;;;;6.88;4.65;;;7.50;99.90;;;6.85;100.00;97996.84;5043952;28;20025;-40
2023/05/03 01:42:15;;;;;;;6.35;5.07;;;7.50;99.90;;;6.84;100.00;97989.88;5039866;28;20037;-39
2023/05/03 01:44:42;;;;;;;7.35;4.70;;;7.40;99.90;;;6.82;100.00;97994.25;5039272;28;20036;-39
2023/05/03 01:47:09;;;;;;;6.57;4.80;;;7.40;99.90;;;6.80;100.00;97998.63;5036154;28;20040;-39
2023/05/03 01:49:34;;;;;;;7.90;5.20;;;7.30;99.90;;;6.76;100.00;97995.19;5038756;28;20029;-40
2023/05/03 01:52:00;;;;;;;6.95;5.13;;;7.30;99.90;;;6.72;100.00;97979.53;5040252;28;20496;-40
2023/05/03 01:54:26;;;;;;;9.77;5.55;;;7.30;99.90;;;6.78;100.00;97987.31;5039001;28;20110;-39
2023/05/03 01:56:52;;;;;;;9.77;5.45;;;7.30;99.90;;;6.80;100.00;97988.16;5039551;28;20041;-39
2023/05/03 01:59:17;;;;;;;8.60;5.78;;;7.30;99.90;;;6.79;100.00;97983.81;5039121;28;20033;-38
2023/05/03 02:01:43;;;;;;;6.97;5.10;;;7.30;99.90;;;6.72;100.00;97984.78;5037851;28;20028;-39
2023/05/03 02:04:10;;;;;;;6.72;5.13;;;7.30;99.90;;;6.74;100.00;97990.88;5036395;28;20095;-39
2023/05/03 02:06:35;;;;;;;11.52;5.03;;;7.30;99.90;;;6.71;100.00;97989.13;5043296;28;21401;-39
2023/05/03 02:09:02;;;;;;;7.97;4.90;;;7.20;99.90;;;6.65;100.00;97997.94;5041247;28;20040;-39
2023/05/03 02:11:27;;;;;;;12.23;5.72;;;7.20;99.90;;;6.58;100.00;97993.66;5041792;28;20220;-39
2023/05/03 02:13:53;;;;;;;10.52;5.68;;;7.20;99.90;;;6.55;100.00;97992.81;5035663;28;20749;-39
2023/05/03 02:16:19;;;;;;;7.75;5.32;;;7.10;99.90;;;6.50;100.00;97992.88;5016793;28;20039;-39
2023/05/03 02:18:45;;;;;;;10.38;5.00;;;7.10;99.90;;;6.47;100.00;97992.91;5036448;28;20115;-38
2023/05/03 02:21:12;;;;;;;7.38;5.20;;;7.10;99.90;;;6.43;100.00;97988.59;5050416;28;20067;-39
2023/05/03 02:23:37;;;;;;;6.75;4.72;;;7.00;99.90;;;6.39;100.00;97992.13;5052702;28;20070;-40
2023/05/03 02:26:04;;;;;;;9.20;4.80;;;7.00;99.90;;;6.37;100.00;97988.66;5046417;28;20020;-39
2023/05/03 02:28:29;;;;;;;8.80;5.18;;;6.90;99.90;;;6.32;100.00;97991.34;5043537;28;20051;-40
2023/05/03 02:30:55;;;;;;;7.40;4.97;;;6.90;99.90;;;6.33;100.00;97989.56;5042829;28;20488;-38
2023/05/03 02:33:21;;;;;;;8.43;5.28;;;6.90;99.90;;;6.27;100.00;97993.13;5041923;28;20044;-39
2023/05/03 02:35:47;;;;;;;8.50;4.95;;;6.90;99.90;;;6.24;100.00;97985.28;5041957;28;20652;-38
2023/05/03 02:38:13;;;;;;;8.27;5.78;;;6.80;99.90;;;6.23;100.00;97987.06;5046240;28;20036;-39
2023/05/03 02:40:38;;;;;;;7.07;5.20;;;6.80;99.90;;;6.17;100.00;97974.00;5044343;28;20044;-39
2023/05/03 02:43:04;;;;;;;7.88;5.28;;;6.80;99.90;;;6.13;100.00;97979.31;5039309;28;20033;-39
2023/05/03 02:45:30;;;;;;;7.22;5.35;;;6.70;99.90;;;6.06;100.00;97983.72;5043419;28;20048;-39
2023/05/03 02:47:55;;;;;;;9.80;6.03;;;6.70;99.90;;;5.97;100.00;97971.59;5040284;28;20401;-39
2023/05/03 02:50:21;;;;;;;10.30;6.65;;;6.60;99.90;;;5.99;100.00;97984.66;5041987;28;20102;-39
2023/05/03 02:52:47;;;;;;;8.38;6.35;;;6.60;99.90;;;5.78;100.00;97946.44;5041882;28;20405;-39
2023/05/03 02:55:12;;;;;;;10.15;5.70;;;6.60;99.90;;;5.94;100.00;97974.22;5039957;28;20032;-39
2023/05/03 02:57:38;;;;;;;10.13;5.90;;;6.50;99.90;;;5.87;100.00;97964.69;5042385;28;20266;-39
2023/05/03 03:00:05;;;;;;;10.35;6.30;;;6.50;99.90;;;5.92;100.00;97984.72;5041820;28;20029;-39
2023/05/03 03:02:31;;;;;;;8.75;6.60;;;6.50;99.90;;;5.90;100.00;97983.84;5042903;28;20455;-39
2023/05/03 03:04:56;;;;;;;9.98;6.47;;;6.50;99.90;;;5.88;100.00;97982.97;5043690;28;20112;-39
2023/05/03 03:07:22;;;;;;;10.82;6.90;;;6.50;99.90;;;5.85;100.00;97980.41;5043031;28;20025;-40
2023/05/03 03:09:48;;;;;;;13.50;7.13;;;6.40;99.90;;;5.85;100.00;97987.38;5041871;28;20110;-40
2023/05/03 03:12:13;;;;;;;12.43;7.53;;;6.40;99.90;;;5.84;100.00;97983.03;5040940;28;20629;-39
2023/05/03 03:14:40;;;;;;;9.88;6.78;;;6.50;99.90;;;5.72;100.00;97963.94;5042270;28;20370;-40
2023/05/03 03:17:08;;;;;;;9.25;6.55;;;6.50;99.90;;;5.85;100.00;97987.38;5040843;28;20035;-39
2023/05/03 03:19:34;;;;;;;11.27;7.13;;;6.40;99.90;;;5.83;100.00;97978.66;5044176;28;20045;-39
2023/05/03 03:22:00;;;;;;;9.75;6.60;;;6.40;99.90;;;5.77;100.00;97976.97;5047092;28;20453;-39
2023/05/03 03:24:26;;;;;;;10.43;6.75;;;6.40;99.90;;;5.70;100.00;97970.91;5048862;28;20037;-39
2023/05/03 03:26:51;;;;;;;11.73;6.90;;;6.40;99.90;;;5.74;100.00;97980.50;5045536;28;20028;-39
2023/05/03 03:29:17;;;;;;;11.73;7.50;;;6.40;99.90;;;5.70;100.00;97983.16;5039314;28;20040;-39
2023/05/03 03:31:43;;;;;;;12.77;8.43;;;6.40;99.90;;;5.59;100.00;97977.13;5041892;28;21278;-40
2023/05/03 03:34:12;;;;;;;13.20;8.35;;;6.30;99.90;;;5.61;100.00;97980.59;5040215;28;20037;-39
2023/05/03 03:36:38;;;;;;;13.07;8.05;;;6.30;99.90;;;5.62;100.00;97984.97;5041156;28;20029;-39
2023/05/03 03:39:04;;;;;;;10.93;7.60;;;6.30;99.90;;;5.58;100.00;97985.84;5043600;28;20568;-39
2023/05/03 03:41:31;;;;;;;12.80;8.15;;;6.30;99.90;;;5.47;100.00;97978.97;5039036;28;20032;-39
2023/05/03 03:43:57;;;;;;;17.10;8.57;;;6.20;99.90;;;5.53;100.00;97997.22;5063606;28;20025;-38
2023/05/03 03:46:23;;;;;;;12.93;8.88;;;6.20;99.90;;;5.50;100.00;97999.00;5037952;28;20392;-39
2023/05/03 03:48:49;;;;;;;14.00;9.25;;;6.20;99.90;;;5.49;100.00;97994.63;5041543;28;20048;-39
2023/05/03 03:51:15;;;;;;;13.48;8.90;;;6.20;99.90;;;5.48;100.00;98000.75;5048511;28;20147;-39
2023/05/03 03:53:41;;;;;;;13.20;8.68;;;6.20;99.90;;;5.47;100.00;98006.88;5047930;28;20036;-39
2023/05/03 03:56:07;;;;;;;14.80;9.38;;;6.20;99.90;;;5.48;100.00;98003.38;5043355;28;20041;-38
2023/05/03 03:58:33;;;;;;;15.63;9.63;;;6.20;99.90;;;5.52;100.00;98008.56;5045678;28;20412;-39
2023/05/03 04:00:59;;;;;;;14.38;9.13;;;6.20;99.90;;;5.54;100.00;98006.81;5041248;28;20046;-41
2023/05/03 04:03:25;;;;;;;14.32;9.07;;;6.20;99.90;;;5.59;100.00;98005.91;5036876;28;20062;-39
2023/05/03 04:05:51;;;;;;;15.88;8.95;;;6.30;99.90;;;5.57;100.00;97991.97;5036200;28;20025;-39
2023/05/03 04:08:17;;;;;;;15.13;8.77;;;6.30;99.90;;;5.66;100.00;97999.75;5040398;28;20044;-40
2023/05/03 04:10:43;;;;;;;15.95;9.43;;;6.30;99.90;;;5.68;100.00;98000.59;5042188;28;20032;-39
2023/05/03 04:13:09;;;;;;;17.38;9.95;;;6.30;99.90;;;5.72;100.00;98015.41;5043079;28;20034;-39
2023/05/03 04:15:35;;;;;;;13.55;9.18;;;6.40;99.90;;;5.80;100.00;98013.59;5043856;28;20388;-39
2023/05/03 04:18:00;;;;;;;15.50;9.10;;;6.50;99.90;;;5.82;100.00;98016.22;5043390;28;20163;-38
2023/05/03 04:20:26;;;;;;;15.75;9.32;;;6.50;99.90;;;5.90;100.00;98024.84;5044972;28;20532;-37
2023/05/03 04:22:52;;;;;;;16.60;9.57;;;6.60;99.90;;;5.97;100.00;98021.34;5047244;28;20029;-38
2023/05/03 04:25:18;;;;;;;17.77;9.43;;;6.60;99.90;;;6.08;100.00;98031.72;5045816;28;20052;-38
2023/05/03 04:27:44;;;;;;;14.77;9.32;;;6.80;99.90;;;6.07;100.00;98016.91;5046553;28;20064;-38
2023/05/03 04:30:12;;;;;;;14.90;9.45;;;6.80;99.90;;;6.20;100.00;98030.75;5048398;28;20534;-38
2023/05/03 04:32:39;;;;;;;15.80;9.05;;;6.90;99.90;;;6.28;100.00;98034.16;5048951;28;20043;-38
2023/05/03 04:35:09;;;;;;;19.35;9.27;;;7.00;99.90;;;6.41;100.00;98035.78;5047570;28;20086;-38
2023/05/03 04:37:42;;;;;;;15.50;8.90;;;7.10;99.90;;;6.47;100.00;98025.22;5041890;28;20068;-38
2023/05/03 04:40:10;;;;;;;15.95;9.20;;;7.20;99.90;;;6.61;100.00;98029.47;5043700;28;20411;-38
2023/05/03 04:42:37;;;;;;;12.70;9.23;;;7.20;99.90;;;6.74;100.00;98038.06;5047777;28;20027;-39
2023/05/03 04:45:05;;;;;;;14.35;8.50;;;7.40;99.90;;;6.81;100.00;98030.09;5049136;28;20048;-40
2023/05/03 04:47:32;;;;;;;13.07;8.60;;;7.40;99.90;;;6.86;100.00;98023.03;5045978;28;20694;-38
2023/05/03 04:49:57;;;;;;;14.27;9.10;;;7.50;99.90;;;7.01;100.00;98044.72;5048856;28;20115;-38
2023/05/03 04:52:25;;;;;;;13.63;9.48;;;7.60;99.90;;;7.11;100.00;98041.09;5047078;28;20086;-38
2023/05/03 04:54:51;;;;;;;12.27;8.85;;;7.70;99.90;;;7.23;100.00;98038.31;5045816;28;20056;-38
2023/05/03 04:57:17;;;;;;;14.57;9.52;;;7.80;99.90;;;7.34;100.00;98045.16;5045726;28;20107;-38
2023/05/03 04:59:43;;;;;;;14.63;8.95;;;7.90;99.90;;;7.45;100.00;98044.13;5046553;28;20746;-38
2023/05/03 05:02:09;;;;;;;13.65;8.95;;;8.00;99.90;;;7.51;100.00;98044.94;5044931;28;20107;-38
2023/05/03 05:04:35;;;;;;;15.00;8.98;;;8.10;99.90;;;7.60;100.00;98050.06;5045340;28;20025;-39
2023/05/03 05:07:00;;;;;;;16.17;9.35;;;8.20;99.90;;;7.65;100.00;98054.34;5046652;28;20052;-38
2023/05/03 05:09:29;;;;;;;14.13;8.20;;;8.20;99.90;;;7.73;100.00;98051.59;5036067;28;20041;-38
2023/05/03 05:11:56;;;;;;;16.73;8.07;;;8.30;99.90;;;7.82;100.00;98051.47;5037770;28;20493;-38
2023/05/03 05:14:22;;;;;;;14.23;9.40;;;8.40;99.90;;;7.89;100.00;98051.38;5041905;28;20028;-38
2023/05/03 05:16:47;;;;;;;9.57;7.78;;;8.50;99.90;;;7.97;100.00;98034.59;5035824;28;20032;-38
2023/05/03 05:19:13;;;;;;;11.38;7.75;;;8.50;99.90;;;8.15;100.00;98049.19;5042380;28;20136;-39
2023/05/03 05:21:39;;;;;;;13.02;8.20;;;8.60;99.90;;;8.22;100.00;98045.56;5048459;28;20075;-38
2023/05/03 05:24:05;;;;;;;13.90;8.88;;;8.70;99.90;;;8.28;100.00;98057.72;5048552;28;20025;-38
2023/05/03 05:26:31;;;;;;;13.93;8.45;;;8.80;99.90;;;8.20;100.00;98043.84;5047230;28;20032;-38
2023/05/03 05:28:57;;;;;;;13.88;8.07;;;8.80;99.90;;;8.27;100.00;98053.34;5046791;28;20042;-37
2023/05/03 05:31:23;;;;;;;15.00;7.75;;;8.70;99.90;;;8.26;100.00;98056.03;5043159;28;20397;-38
2023/05/03 05:33:49;;;;;;;13.52;7.97;;;8.80;99.90;;;8.26;100.00;98054.25;5047888;28;20041;-38
2023/05/03 05:36:15;;;;;;;14.65;8.15;;;8.70;99.90;;;8.18;100.00;98059.66;5048450;28;20040;-38
2023/05/03 05:38:41;;;;;;;11.50;7.43;;;8.70;99.90;;;8.20;100.00;98059.59;5048199;28;20021;-38
2023/05/03 05:41:06;;;;;;;10.50;7.45;;;8.70;99.90;;;8.20;100.00;98062.22;5044798;28;20396;-40
2023/05/03 05:43:32;;;;;;;9.95;7.75;;;8.70;99.90;;;8.21;100.00;98051.69;5047939;28;20137;-39
2023/05/03 05:45:58;;;;;;;14.65;8.50;;;8.70;99.90;;;8.27;100.00;98057.75;5047713;28;20419;-40
2023/05/03 05:48:24;;;;;;;15.35;8.52;;;8.70;99.90;;;8.33;100.00;98062.91;5048178;28;20043;-40
2023/05/03 05:50:50;;;;;;;12.95;8.85;;;8.80;99.90;;;8.45;100.00;98061.84;5049536;28;20270;-39
2023/05/03 05:53:16;;;;;;;13.15;8.35;;;8.90;99.90;;;8.55;100.00;98056.41;5045758;28;20483;-39
2023/05/03 05:55:42;;;;;;;16.55;9.48;;;9.00;99.90;;;8.66;100.00;98057.97;5048874;28;20362;-39
2023/05/03 05:58:08;;;;;;;12.25;8.50;;;9.10;99.90;;;8.77;100.00;98059.50;5047640;28;20531;-40
2023/05/03 06:00:35;;;;;;;15.63;9.32;;;9.20;99.90;;;8.92;100.00;98060.97;5048397;28;20029;-39
2023/05/03 06:03:00;;;;;;;13.85;9.15;;;9.30;99.90;;;9.08;100.00;98052.75;5049914;28;20486;-40
2023/05/03 06:05:26;;;;;;;12.07;7.97;;;9.50;99.90;;;9.21;100.00;98053.38;5046712;28;20029;-39
2023/05/03 06:07:52;;;;;;;17.35;9.68;;;9.60;99.90;;;9.28;100.00;98058.47;5049453;28;20060;-38
2023/05/03 06:10:17;;;;;;;10.43;8.15;;;9.70;99.90;;;9.43;100.00;98054.63;5047320;28;20032;-39
2023/05/03 06:12:43;;;;;;;13.02;8.25;;;9.80;99.90;;;9.62;100.00;98048.94;5048694;28;20384;-39
2023/05/03 06:15:09;;;;;;;13.38;8.32;;;10.00;99.90;;;9.80;100.00;98050.28;5046645;28;20072;-40
2023/05/03 06:17:35;;;;;;;12.30;8.00;;;10.20;99.90;;;9.82;100.00;98033.56;5048288;28;20744;-41
2023/05/03 06:20:01;;;;;;;14.43;8.55;;;10.30;99.90;;;9.98;100.00;98052.53;5049043;28;20119;-39
2023/05/03 06:22:27;;;;;;;13.73;9.20;;;10.40;99.90;;;9.85;100.00;98040.53;5047914;28;20034;-39
2023/05/03 06:24:54;;;;;;;14.73;8.80;;;10.50;99.90;;;9.91;100.00;98056.19;5044139;28;20024;-39
2023/05/03 06:27:20;;;;;;;11.48;8.13;;;10.40;99.90;;;10.09;100.00;98054.88;5040931;28;20392;-39
2023/05/03 06:29:48;;;;;;;10.35;7.70;;;10.50;99.90;;;10.12;100.00;98057.44;5046587;28;20032;-40
2023/05/03 06:32:14;;;;;;;16.13;8.43;;;10.60;99.90;;;10.13;100.00;98057.41;5047412;28;20491;-41
2023/05/03 06:34:40;;;;;;;11.75;7.22;;;10.60;99.90;;;10.22;100.00;98060.72;5046315;28;20209;-39
2023/05/03 06:37:06;;;;;;;11.85;7.38;;;10.60;99.90;;;10.30;100.00;98059.63;5048764;28;20047;-39
2023/05/03 06:39:31;;;;;;;14.13;9.02;;;10.70;99.90;;;10.48;100.00;98055.69;5045486;28;20035;-39
2023/05/03 06:41:57;;;;;;;16.30;8.68;;;10.80;99.90;;;10.53;100.00;98050.28;5043344;28;20036;-40
2023/05/03 06:44:23;;;;;;;10.75;8.40;;;11.00;99.90;;;10.79;100.00;98057.50;5048528;28;20040;-39
2023/05/03 06:46:48;;;;;;;11.93;8.02;;;11.30;99.90;;;11.17;100.00;98066.13;5045166;28;20036;-39
2023/05/03 06:49:14;;;;;;;13.93;8.68;;;11.60;99.90;;;11.33;100.00;98065.69;5048224;28;20079;-40
2023/05/03 06:51:40;;;;;;;13.10;8.10;;;11.80;99.90;;;11.58;100.00;98066.66;5048806;28;20028;-40
2023/05/03 06:54:08;;;;;;;12.55;8.30;;;12.00;99.90;;;11.74;100.00;98068.84;5049020;28;20044;-39
2023/05/03 06:56:34;;;;;;;13.40;8.77;;;12.20;99.90;;;11.85;100.00;98059.66;5045483;28;20067;-39
2023/05/03 06:59:01;;;;;;;11.18;7.82;;;12.30;99.90;;;11.95;100.00;98056.75;5046654;28;20090;-39
2023/05/03 07:01:27;;;;;;;12.13;7.85;;;12.40;99.90;;;11.99;100.00;98050.47;5043246;28;20044;-39
2023/05/03 07:03:52;;;;;;;9.30;7.03;;;12.50;99.90;;;12.11;100.00;98057.97;5050460;28;20479;-40
2023/05/03 07:06:18;;;;;;;12.25;7.30;;;12.40;99.90;;;12.32;100.00;98060.84;5048307;28;20492;-39
2023/05/03 07:08:44;;;;;;;11.70;8.18;;;12.50;99.90;;;12.29;100.00;98059.19;5048771;28;20089;-40
2023/05/03 07:11:10;;;;;;;11.13;7.80;;;12.50;99.90;;;12.35;100.00;98051.03;5046313;28;20432;-39
2023/05/03 07:13:35;;;;;;;15.88;8.35;;;12.50;99.90;;;12.42;100.00;98046.41;5047974;28;20028;-40
2023/05/03 07:16:02;;;;;;;10.82;7.55;;;12.60;99.90;;;12.51;100.00;98039.94;5050214;28;20953;-40
2023/05/03 07:18:27;;;;;;;13.55;9.40;;;12.60;99.90;;;12.57;100.00;98045.88;5062558;28;20036;-38
2023/05/03 07:20:53;;;;;;;14.15;8.52;;;12.70;99.90;;;12.69;100.00;98047.22;5050636;28;20603;-38
2023/05/03 07:23:19;;;;;;;13.82;9.07;;;12.80;99.90;;;12.73;100.00;98038.25;5052583;28;20040;-39
2023/05/03 07:25:45;;;;;;;12.38;7.30;;;12.80;99.90;;;12.76;100.00;98027.56;5051547;28;20464;-39
2023/05/03 07:28:11;;;;;;;9.00;6.95;;;12.90;99.90;;;12.76;100.00;98019.63;5048609;28;20498;-39
2023/05/03 07:30:36;;;;;;;10.23;7.40;;;12.90;99.90;;;12.71;100.00;98032.16;5051158;28;20056;-40
2023/05/03 07:33:02;;;;;;;13.68;8.52;;;12.90;99.90;;;12.62;100.00;98021.91;5052791;28;20441;-39
2023/05/03 07:35:29;;;;;;;11.85;8.85;;;12.90;99.90;;;12.46;100.00;98018.06;5053290;28;20086;-39
2023/05/03 07:37:55;;;;;;;8.77;6.72;;;12.90;99.90;;;12.56;100.00;98043.25;5052108;28;20028;-39
2023/05/03 07:40:21;;;;;;;9.95;7.88;;;12.90;99.90;;;12.67;100.00;98035.84;5049279;28;20517;-39
2023/05/03 07:42:47;;;;;;;10.00;7.15;;;12.90;99.90;;;12.59;100.00;98043.16;5048600;28;21416;-39
2023/05/03 07:45:13;;;;;;;10.50;7.53;;;12.90;99.90;;;12.50;100.00;98035.56;5047701;28;20028;-40
2023/05/03 07:47:39;;;;;;;12.45;7.13;;;12.80;99.90;;;12.51;100.00;98037.31;5050156;28;20023;-41
2023/05/03 07:50:06;;;;;;;11.75;7.68;;;12.80;99.90;;;12.51;100.00;98035.50;5045519;28;20496;-41
2023/05/03 07:52:38;;;;;;;11.43;7.35;;;12.90;99.90;;;12.62;100.00;98031.63;5053534;28;20446;-41
2023/05/03 07:55:06;;;;;;;12.50;8.75;;;12.90;99.90;;;12.60;100.00;98029.88;5052259;28;20329;-40
2023/05/03 07:57:31;;;;;;;9.63;7.57;;;12.90;99.90;;;12.70;100.00;98025.13;5051379;28;20056;-40
2023/05/03 07:59:57;;;;;;;11.43;7.68;;;13.00;99.90;;;12.62;100.00;98021.03;5049549;28;20111;-41
2023/05/03 08:02:23;;;;;;;9.98;6.88;;;13.00;99.90;;;12.73;100.00;98024.16;5049899;28;20032;-39
2023/05/03 08:04:49;;;;;;;11.00;7.55;;;13.10;99.90;;;12.79;100.00;98027.47;5051351;28;20033;-40
2023/05/03 08:07:16;;;;;;;11.18;7.25;;;13.10;99.90;;;12.90;100.00;98027.09;5051351;28;20356;-40
2023/05/03 08:09:41;;;;;;;10.45;7.18;;;13.20;99.90;;;13.02;100.00;98017.81;5051140;28;20066;-40
2023/05/03 08:12:07;;;;;;;10.10;7.13;;;13.30;99.90;;;13.09;100.00;98029.03;5048897;28;20032;-41
2023/05/03 08:14:33;;;;;;;12.85;7.93;;;13.40;99.90;;;13.14;100.00;98024.44;5049696;28;20575;-40
2023/05/03 08:17:00;;;;;;;13.10;7.97;;;13.50;99.90;;;13.17;100.00;98024.31;5046414;28;20779;-40
2023/05/03 08:19:25;;;;;;;12.55;8.00;;;13.50;99.90;;;13.22;100.00;98029.44;5045779;28;20032;-41
2023/05/03 08:21:53;;;;;;;12.23;7.50;;;13.60;99.90;;;13.35;100.00;98028.06;5050317;28;20024;-40
2023/05/03 08:24:19;;;;;;;12.45;7.00;;;13.60;99.90;;;13.48;100.00;98028.50;5050721;28;20036;-40
2023/05/03 08:26:47;;;;;;;10.15;6.82;;;13.80;99.90;;;13.73;100.00;98026.59;5048456;28;20025;-40
2023/05/03 08:29:13;;;;;;;8.98;6.80;;;14.00;99.90;;;13.81;100.00;98025.44;5050272;28;20021;-40
2023/05/03 08:31:39;;;;;;;12.55;8.52;;;14.10;99.90;;;13.89;100.00;98029.50;5046124;28;20037;-42
2023/05/03 08:34:06;;;;;;;9.10;7.22;;;14.30;99.90;;;13.96;95.03;98031.91;5051880;28;20102;-41
2023/05/03 08:36:33;;;;;;;10.48;7.30;;;14.30;99.90;;;14.01;95.28;98030.78;5048664;28;20036;-40
2023/05/03 08:38:59;;;;;;;8.73;6.80;;;14.40;99.90;;;14.08;93.56;98034.06;5049583;28;20516;-41
2023/05/03 08:41:30;;;;;;;9.60;6.70;;;14.40;99.90;;;14.02;94.60;98013.09;5048263;28;20047;-40
2023/05/03 08:43:58;;;;;;;12.25;8.02;;;14.40;99.90;;;14.03;96.90;98033.38;5046933;28;20361;-40
2023/05/03 08:46:24;;;;;;;14.70;8.05;;;14.40;99.90;;;13.94;98.51;98016.94;5051804;28;20033;-40
2023/05/03 08:48:52;;;;;;;10.02;7.18;;;14.40;99.90;;;14.03;96.93;98022.78;5050952;28;20059;-41
2023/05/03 08:51:19;;;;;;;11.40;7.72;;;14.40;99.90;;;14.05;94.03;98013.84;5048492;28;20732;-41
2023/05/03 08:53:45;;;;;;;10.93;6.70;;;14.50;99.90;;;14.28;93.77;98027.91;5049950;28;20044;-40
2023/05/03 08:56:19;;;;;;;13.38;6.07;;;14.60;99.90;;;14.51;93.72;98034.91;5051246;28;20119;-40
2023/05/03 08:58:44;;;;;;;10.40;7.90;;;14.80;99.90;;;14.38;93.81;98031.06;5045797;28;20041;-40
2023/05/03 09:01:10;;;;;;;11.82;7.30;;;14.70;99.90;;;14.27;93.83;98036.81;5049066;28;20033;-40
2023/05/03 09:03:36;;;;;;;10.13;7.07;;;14.60;99.90;;;14.13;93.69;98040.03;5054130;28;20028;-40
2023/05/03 09:06:02;;;;;;;9.93;6.72;;;14.50;99.90;;;14.09;96.14;98036.66;5047994;28;20047;-40
2023/05/03 09:08:29;;;;;;;10.77;7.43;;;14.40;99.90;;;14.17;95.34;98043.44;5046877;28;20037;-40
2023/05/03 09:10:56;;;;;;;11.52;8.13;;;14.50;99.90;;;14.23;96.55;98037.84;5050540;28;21322;-40
2023/05/03 09:13:29;;;;;;;12.15;7.38;;;14.60;99.90;;;14.40;90.75;98040.69;5049233;28;20024;-40
2023/05/03 09:15:56;;;;;;;8.93;6.57;;;14.80;99.90;;;14.77;92.29;98048.88;5050893;28;20428;-40
2023/05/03 09:18:22;;;;;;;10.35;6.35;;;15.10;99.90;;;14.97;89.71;98046.22;5048390;28;20029;-41
2023/05/03 09:20:50;;;;;;;11.85;6.97;;;15.30;99.90;;;14.95;91.80;98034.81;5053562;28;20032;-40
2023/05/03 09:23:29;;;;;;;8.88;6.72;;;15.30;99.90;;;14.88;91.42;98041.31;5050896;28;20042;-40
2023/05/03 09:25:56;;;;;;;10.68;6.78;;;15.30;99.90;;;14.92;90.84;98032.28;5044647;28;20032;-39
2023/05/03 09:28:22;;;;;;;11.48;6.88;;;15.20;99.90;;;14.96;95.89;98033.88;5044067;28;20131;-39
2023/05/03 09:30:49;;;;;;;9.40;7.50;;;15.30;99.90;;;15.02;90.22;98030.06;5049933;28;20111;-40
2023/05/03 09:33:21;;;;;;;10.95;7.78;;;15.40;99.90;;;14.97;89.89;98035.59;5049352;28;20034;-41
2023/05/03 09:36:03;;;;;;;11.13;6.63;;;15.50;99.90;;;15.22;89.61;98027.38;5051231;28;20409;-42
2023/05/03 09:38:35;;;;;;;9.80;7.47;;;15.60;99.90;;;15.20;90.78;98034.56;5051158;28;20063;-41
2023/05/03 09:41:04;;;;;;;12.23;8.00;;;15.70;99.90;;;14.87;87.48;98028.97;5044262;28;20393;-40
2023/05/03 09:43:30;;;;;;;10.68;7.93;;;15.50;99.90;;;14.90;90.38;98026.19;5047611;28;20048;-42
2023/05/03 09:46:11;;;;;;;11.63;8.27;;;15.50;99.90;;;14.91;88.98;98038.50;5049687;28;20021;-41
2023/05/03 09:48:38;;;;;;;10.65;7.80;;;15.40;99.90;;;14.99;89.79;98028.44;5047428;28;20081;-39
2023/05/03 09:51:04;;;;;;;11.73;7.28;;;15.60;99.90;;;15.03;89.75;98018.53;5050963;28;20513;-39
2023/05/03 09:53:33;;;;;;;10.32;7.40;;;15.60;99.90;;;15.14;88.49;98021.53;5051728;28;20434;-41
2023/05/03 09:56:01;;;;;;;11.48;7.85;;;15.60;99.90;;;15.19;85.21;98024.00;5049995;28;20491;-41
2023/05/03 09:58:29;;;;;;;9.52;6.97;;;15.70;99.90;;;15.48;84.29;98027.97;5046493;28;20029;-40
2023/05/03 10:00:56;;;;;;;9.40;7.07;;;15.90;99.90;;;15.67;82.26;98022.66;5050876;28;20078;-40
2023/05/03 10:03:30;;;;;;;9.65;7.15;;;16.20;99.90;;;15.83;80.41;98031.66;5054234;28;20127;-39
2023/05/03 10:06:00;;;;;;;12.82;7.85;;;16.30;99.90;;;15.90;80.00;98023.38;5050580;28;20028;-41
2023/05/03 10:08:40;;;;;;;10.85;6.55;;;16.40;99.90;;;16.13;82.34;98016.91;5047826;28;20036;-41
2023/05/03 10:11:08;;;;;;;9.98;6.20;;;16.60;99.90;;;16.45;81.89;98027.75;5048051;28;20094;-40
2023/05/03 10:13:35;;;;;;;10.07;6.07;;;16.90;99.90;;;16.57;75.02;98017.34;5049166;28;20024;-41
2023/05/03 10:16:08;;;;;;;11.20;6.97;;;17.10;99.90;;;16.67;73.55;98019.53;5047153;28;20516;-40
2023/05/03 10:18:44;;;;;;;10.57;7.60;;;17.20;99.90;;;16.61;73.47;98028.69;5048511;28;20036;-40